地図

経路データ

SID SEASON NUMBER BASIN SUBBASIN NAME ISO_TIME NATURE LAT LON WMO_WIND WMO_PRES WMO_AGENCY TRACK_TYPE DIST2LAND LANDFALL IFLAG USA_AGENCY USA_ATCF_ID USA_LAT USA_LON USA_RECORD USA_STATUS USA_WIND USA_PRES USA_SSHS USA_R34_NE USA_R34_SE USA_R34_SW USA_R34_NW USA_R50_NE USA_R50_SE USA_R50_SW USA_R50_NW USA_R64_NE USA_R64_SE USA_R64_SW USA_R64_NW USA_POCI USA_ROCI USA_RMW USA_EYE TOKYO_LAT TOKYO_LON TOKYO_GRADE TOKYO_WIND TOKYO_PRES TOKYO_R50_DIR TOKYO_R50_LONG TOKYO_R50_SHORT TOKYO_R30_DIR TOKYO_R30_LONG TOKYO_R30_SHORT TOKYO_LAND CMA_LAT CMA_LON CMA_CAT CMA_WIND CMA_PRES HKO_LAT HKO_LON HKO_CAT HKO_WIND HKO_PRES NEWDELHI_LAT NEWDELHI_LON NEWDELHI_GRADE NEWDELHI_WIND NEWDELHI_PRES NEWDELHI_CI NEWDELHI_DP NEWDELHI_POCI REUNION_LAT REUNION_LON REUNION_TYPE REUNION_WIND REUNION_PRES REUNION_TNUM REUNION_CI REUNION_RMW REUNION_R34_NE REUNION_R34_SE REUNION_R34_SW REUNION_R34_NW REUNION_R50_NE REUNION_R50_SE REUNION_R50_SW REUNION_R50_NW REUNION_R64_NE REUNION_R64_SE REUNION_R64_SW REUNION_R64_NW BOM_LAT BOM_LON BOM_TYPE BOM_WIND BOM_PRES BOM_TNUM BOM_CI BOM_RMW BOM_R34_NE BOM_R34_SE BOM_R34_SW BOM_R34_NW BOM_R50_NE BOM_R50_SE BOM_R50_SW BOM_R50_NW BOM_R64_NE BOM_R64_SE BOM_R64_SW BOM_R64_NW BOM_ROCI BOM_POCI BOM_EYE BOM_POS_METHOD BOM_PRES_METHOD NADI_LAT NADI_LON NADI_CAT NADI_WIND NADI_PRES WELLINGTON_LAT WELLINGTON_LON WELLINGTON_WIND WELLINGTON_PRES DS824_LAT DS824_LON DS824_STAGE DS824_WIND DS824_PRES TD9636_LAT TD9636_LON TD9636_STAGE TD9636_WIND TD9636_PRES TD9635_LAT TD9635_LON TD9635_WIND TD9635_PRES TD9635_ROCI NEUMANN_LAT NEUMANN_LON NEUMANN_CLASS NEUMANN_WIND NEUMANN_PRES MLC_LAT MLC_LON MLC_CLASS MLC_WIND MLC_PRES USA_GUST BOM_GUST BOM_GUST_PER REUNION_GUST REUNION_GUST_PER USA_SEAHGT USA_SEARAD_NE USA_SEARAD_SE USA_SEARAD_SW USA_SEARAD_NW STORM_SPEED STORM_DIR
1934318S19046 1935 79 SI MM NOT_NAMED 1934-11-14 06:00:00 NR -18.9000 46.1000 reunion main 0 0 _____O________ -1 -18.9000 46.1000 99 9.90000 2 142
1934318S19046 1935 79 SI MM NOT_NAMED 1934-11-14 09:00:00 NR -18.9693 46.1529 main 0 0 _____P________ -1 -18.9693 46.1529 99 2 142
1934318S19046 1935 79 SI MM NOT_NAMED 1934-11-14 12:00:00 NR -19.0464 46.2150 main 0 0 _____P________ -1 -19.0464 46.2150 99 2 141
1934318S19046 1935 79 SI MM NOT_NAMED 1934-11-14 15:00:00 NR -19.1388 46.2954 main 0 0 _____P________ -1 -19.1388 46.2954 99 3 143
1934318S19046 1935 79 SI MM NOT_NAMED 1934-11-14 18:00:00 NR -19.3034 46.4228 main 0 0 _____P____O___ -1 -19.2543 46.4035 99 -19.5000 46.5000 1 4 141
1934318S19046 1935 79 SI MM NOT_NAMED 1934-11-14 21:00:00 NR -19.4690 46.5831 main 0 0 _____P____P___ -1 -19.4006 46.5485 99 -19.6059 46.6523 1 5 136
1934318S19046 1935 79 SI MM NOT_NAMED 1934-11-15 00:00:00 NR -19.6513 46.7800 main 0 0 _____P____P___ -1 -19.5853 46.7398 99 -19.7394 46.8337 1 6 134
1934318S19046 1935 79 SI MM NOT_NAMED 1934-11-15 03:00:00 NR -19.8721 47.0301 main 0 0 _____P____P___ -1 -19.8159 46.9871 99 -19.9283 47.0731 1 7 133
1934318S19046 1935 79 SI MM NOT_NAMED 1934-11-15 06:00:00 TS -20.1556 47.3556 reunion main 0 0 _____O___OO___ -1 -20.1000 47.3000 99 9.90000 -20.2000 47.4000 TC 25 -20.2000 47.4000 1 10 133
1934318S19046 1935 79 SI MM NOT_NAMED 1934-11-15 09:00:00 TS -20.5354 47.7855 main 0 0 _____P___PP___ -1 -20.4420 47.6851 99 -20.6502 47.8895 TC 25 -20.5714 47.8339 1 12 133
1934318S19046 1935 79 SI MM NOT_NAMED 1934-11-15 12:00:00 TS -20.9738 48.2857 main 0 0 _____P___OP___ -1 -20.8348 48.1341 99 -21.1000 48.4000 TC 25 -21.0181 48.3516 1 13 133
1934318S19046 1935 79 SI MM NOT_NAMED 1934-11-15 15:00:00 TS -21.4412 48.8323 main 51 51 _____P___PP___ -1 -21.2682 48.6355 99 -21.5499 48.9428 TC 25 -21.5057 48.9186 1 14 132
1934318S19046 1935 79 SI MM NOT_NAMED 1934-11-15 18:00:00 TS -21.9107 49.3924 main 124 124 _____P___OO___ -1 -21.7322 49.1771 99 -22.0000 49.5000 TC 25 -22.0000 49.5000 1 14 132
1934318S19046 1935 79 SI MM NOT_NAMED 1934-11-15 21:00:00 TS -22.3735 49.9483 main 187 187 _____P___PP___ -1 -22.2171 49.7469 99 -22.4498 50.0504 TC 25 -22.4537 50.0476 1 14 132
1934318S19046 1935 79 SI MM NOT_NAMED 1934-11-16 00:00:00 TS -22.8400 50.5111 main 261 261 _____P___OP___ -1 -22.7130 50.3324 99 -22.9000 50.6000 TC 25 -22.9070 50.6010 1 14 132
1934318S19046 1935 79 SI MM NOT_NAMED 1934-11-16 03:00:00 TS -23.3082 51.0751 main 339 339 _____P___PP___ -1 -23.2104 50.9211 99 -23.3573 51.1503 TC 25 -23.3568 51.1539 1 14 132
1934318S19046 1935 79 SI MM NOT_NAMED 1934-11-16 06:00:00 TS -23.7667 51.6333 reunion main 399 399 _____O___OO___ -1 -23.7000 51.5000 99 9.90000 -23.8000 51.7000 TC 25 -23.8000 51.7000 1 13 131
1934318S19046 1935 79 SI MM NOT_NAMED 1934-11-16 09:00:00 TS -24.1927 52.1739 main 453 448 _____P___PP___ -1 -24.1506 52.0261 99 -24.1999 52.2580 TC 25 -24.2275 52.2375 1 13 131
1934318S19046 1935 79 SI MM NOT_NAMED 1934-11-16 12:00:00 TS -24.6166 52.7058 main 454 452 _____P___OP___ -1 -24.6007 52.5505 99 -24.6000 52.8000 TC 25 -24.6493 52.7668 1 13 132
1934318S19046 1935 79 SI MM NOT_NAMED 1934-11-16 15:00:00 TS -25.0541 53.2226 main 475 471 _____P___PP___ -1 -25.0486 53.0723 99 -25.0423 53.3078 TC 25 -25.0713 53.2876 1 13 134
1934318S19046 1935 79 SI MM NOT_NAMED 1934-11-16 18:00:00 TS -25.4976 53.7301 main 496 493 _____P___OO___ -1 -25.4928 53.5902 99 -25.5000 53.8000 TC 25 -25.5000 53.8000 1 13 134
1934318S19046 1935 79 SI MM NOT_NAMED 1934-11-16 21:00:00 TS -25.9467 54.2397 main 522 522 _____P___PP___ -1 -25.9317 54.1032 99 -25.9498 54.3004 TC 25 -25.9586 54.3157 1 13 135
1934318S19046 1935 79 SI MM NOT_NAMED 1934-11-17 00:00:00 TS -26.3951 54.7443 main 566 564 _____P___OP___ -1 -26.3635 54.6100 99 -26.4000 54.8000 TC 25 -26.4219 54.8229 1 13 135
1934318S19046 1935 79 SI MM NOT_NAMED 1934-11-17 03:00:00 TS -26.8420 55.2452 main 604 604 _____P___PP___ -1 -26.7868 55.1094 99 -26.8649 55.3076 TC 25 -26.8743 55.3187 1 12 135
1934318S19046 1935 79 SI MM NOT_NAMED 1934-11-17 06:00:00 TS -27.2667 55.7333 reunion main 659 659 _____O___OO___ -1 -27.2000 55.6000 99 9.90000 -27.3000 55.8000 TC 25 -27.3000 55.8000 1 12 133
1934318S19046 1935 79 SI MM NOT_NAMED 1934-11-17 09:00:00 TS -27.6510 56.2077 main 706 706 _____P___PP___ -1 -27.6185 56.1066 99 -27.6648 56.2580 TC 25 -27.6697 56.2584 1 11 132
1934318S19046 1935 79 SI MM NOT_NAMED 1934-11-17 12:00:00 TS -28.0144 56.6700 main 745 745 _____P___OP___ -1 -28.0295 56.6070 99 -28.0000 56.7000 TC 25 -28.0138 56.7029 1 11 132
1934318S19046 1935 79 SI MM NOT_NAMED 1934-11-17 15:00:00 TS -28.3746 57.1290 main 796 796 _____P___PP___ -1 -28.4305 57.0983 99 -28.3423 57.1430 TC 25 -28.3510 57.1459 1 11 132
1934318S19046 1935 79 SI MM NOT_NAMED 1934-11-17 18:00:00 TS -28.7397 57.5924 main 840 840 _____P___OO___ -1 -28.8191 57.5771 99 -28.7000 57.6000 TC 25 -28.7000 57.6000 1 11 132
1934318S19046 1935 79 SI MM NOT_NAMED 1934-11-17 21:00:00 TS -29.1200 58.0694 main 896 896 _____P___PP___ -1 -29.1927 58.0402 99 -29.0924 58.0927 TC 25 -29.0749 58.0754 1 11 133
1934318S19046 1935 79 SI MM NOT_NAMED 1934-11-18 00:00:00 TS -29.5112 58.5448 main 950 950 _____P___OP___ -1 -29.5490 58.4841 99 -29.5000 58.6000 TC 25 -29.4720 58.5705 1 11 134
1934318S19046 1935 79 SI MM NOT_NAMED 1934-11-18 03:00:00 TS -29.8893 58.9982 main 1008 1008 _____P___PP___ -1 -29.8856 58.9052 99 -29.9028 59.1018 TC 25 -29.8831 59.0804 1 10 134
1934318S19046 1935 79 SI MM NOT_NAMED 1934-11-18 06:00:00 TS -30.2333 59.4000 reunion main 1053 1053 _____O___OO___ -1 -30.2000 59.3000 99 9.90000 -30.3000 59.6000 TC 25 -30.3000 59.6000 1 8 136
1934318S19046 1935 79 SI MM NOT_NAMED 1934-11-18 09:00:00 NR -30.4908 59.6659 main 1095 1095 _____P________ -1 -30.4908 59.6659 99 TC 1 7 135
1934318S19046 1935 79 SI MM NOT_NAMED 1934-11-18 12:00:00 NR -30.7603 60.0054 main 1137 1137 _____P________ -1 -30.7603 60.0054 99 1 8 133
1934318S19046 1935 79 SI MM NOT_NAMED 1934-11-18 15:00:00 NR -31.0116 60.3221 main 1169 1169 _____P________ -1 -31.0116 60.3221 99 1 7 133
1934318S19046 1935 79 SI MM NOT_NAMED 1934-11-18 18:00:00 NR -31.2477 60.6199 main 1202 1202 _____P________ -1 -31.2477 60.6199 99 7 133
1934318S19046 1935 79 SI MM NOT_NAMED 1934-11-18 21:00:00 NR -31.4716 60.9025 main 1244 1244 _____P________ -1 -31.4716 60.9025 99 6 133
1934318S19046 1935 79 SI MM NOT_NAMED 1934-11-19 00:00:00 NR -31.6864 61.1741 main 1277 1277 _____P________ -1 -31.6864 61.1741 99 6 133
1934318S19046 1935 79 SI MM NOT_NAMED 1934-11-19 03:00:00 NR -31.8949 61.4385 main 1305 1305 _____P________ -1 -31.8949 61.4385 99 6 133
1934318S19046 1935 79 SI MM NOT_NAMED 1934-11-19 06:00:00 NR -32.1000 61.7000 reunion main 1338 _____O________ -1 -32.1000 61.7000 99 9.90000 6 133

IBTrACS Databaseについて

本データベースは、米国NOAAが公開する1842年以降の世界の熱帯低気圧のベストトラックデータアーカイブInternational Best Track Archive for Climate Stewardship (IBTrACS)を、ウェブで閲覧しやすい形式に変換したものです。

最終更新日:2021-10-21